Terminal Aerodrome Forecast
Issued by NWS Miami, FL

Home | Current Version | Previous Version | Text Only | Print | Product List | Glossary On
Versions: 1 2 3 4 5 6 7 8 9 10 11 12 13 14 15 16 17 18 19 20 21 22 23 24 25 26 27
000
FTUS42 KMFL 261720
TAFAPF
TAF
KAPF 261720Z 2618/2718 08007KT P6SM FEW050 SCT100
     FM261830 25009KT P6SM VCSH FEW025 SCT050 BKN250
     FM270200 00000KT P6SM SCT030 SCT250
     FM271400 07004KT P6SM FEW040=

USA.gov is the U.S. government's official web portal to all federal, state and local government web resources and services.